Time;durP1;ratioP1;P1;durP2;ratioP2;P2;SDS_P1;SDS_P2;PMS_P1;PMS_P2;Temp;Humidity;BMP_temperature;BMP_pressure;BME280_temperature;BME280_humidity;BME280_pressure;Samples;Min_cycle;Max_cycle;Signal;HPM_P1;HPM_P2
2024/01/05 00:01:05;;;;;;;0.40;0.40;;;2.10;99.90;;;;;;4396250;32;20082;-62
2024/01/05 00:03:30;;;;;;;0.40;0.40;;;2.10;99.90;;;;;;4393665;32;20066;-62
2024/01/05 00:05:55;;;;;;;0.57;0.57;;;2.20;99.90;;;;;;4394619;32;20074;-62
2024/01/05 00:08:21;;;;;;;0.37;0.37;;;2.20;99.90;;;;;;4394637;32;20065;-62
2024/01/05 00:10:46;;;;;;;0.43;0.43;;;2.20;99.90;;;;;;4394815;32;20070;-61
2024/01/05 00:13:12;;;;;;;0.35;0.35;;;2.10;99.90;;;;;;4393356;32;20098;-61
2024/01/05 00:15:37;;;;;;;0.40;0.40;;;2.00;99.90;;;;;;4396061;32;20078;-62
2024/01/05 00:18:04;;;;;;;0.55;0.55;;;2.00;99.90;;;;;;4394501;32;20079;-61
2024/01/05 00:20:30;;;;;;;0.40;0.40;;;2.00;99.90;;;;;;4394616;32;20065;-61
2024/01/05 00:22:56;;;;;;;0.40;0.40;;;1.90;99.90;;;;;;4397422;32;20079;-61
2024/01/05 00:25:21;;;;;;;3.72;1.65;;;1.90;99.90;;;;;;4395475;32;20071;-61
2024/01/05 00:27:47;;;;;;;0.47;0.47;;;1.90;99.90;;;;;;4393768;32;20132;-62
2024/01/05 00:30:13;;;;;;;0.73;0.73;;;2.00;99.90;;;;;;4393839;32;20098;-62
2024/01/05 00:32:39;;;;;;;4.00;1.42;;;2.00;99.90;;;;;;4391690;32;20660;-62
2024/01/05 00:35:05;;;;;;;0.45;0.45;;;2.10;99.90;;;;;;4393363;32;20132;-62
2024/01/05 00:37:30;;;;;;;0.40;0.40;;;2.10;99.90;;;;;;4396377;32;20177;-61
2024/01/05 00:39:55;;;;;;;0.50;0.50;;;2.00;99.90;;;;;;4395345;32;20073;-63
2024/01/05 00:42:21;;;;;;;0.35;0.35;;;2.00;99.90;;;;;;4393609;32;20065;-61
2024/01/05 00:44:46;;;;;;;0.50;0.50;;;1.90;99.90;;;;;;4392280;32;20095;-62
2024/01/05 00:47:12;;;;;;;0.30;0.30;;;1.90;99.90;;;;;;4397456;32;20069;-61
2024/01/05 00:49:38;;;;;;;0.40;0.40;;;1.90;99.90;;;;;;4394915;32;20074;-61
2024/01/05 00:52:04;;;;;;;0.40;0.40;;;2.00;99.90;;;;;;4394313;32;20578;-61
2024/01/05 00:54:29;;;;;;;0.40;0.40;;;2.00;99.90;;;;;;4394475;32;20082;-61
2024/01/05 00:56:55;;;;;;;0.40;0.40;;;2.10;99.90;;;;;;4392773;32;20129;-61
2024/01/05 00:59:20;;;;;;;0.45;0.45;;;2.10;99.90;;;;;;4396198;32;20070;-62
2024/01/05 01:01:46;;;;;;;0.50;0.50;;;2.10;99.90;;;;;;4396549;32;20142;-61
2024/01/05 01:04:12;;;;;;;0.30;0.30;;;2.10;99.90;;;;;;4396713;32;20078;-61
2024/01/05 01:06:37;;;;;;;0.40;0.40;;;2.10;99.90;;;;;;4394106;32;20077;-61
2024/01/05 01:09:03;;;;;;;0.40;0.40;;;2.20;99.90;;;;;;4393801;32;20082;-61
2024/01/05 01:11:28;;;;;;;0.30;0.30;;;2.20;99.90;;;;;;4394368;32;20458;-62
2024/01/05 01:13:54;;;;;;;0.40;0.40;;;2.10;99.90;;;;;;4394001;32;20117;-62
2024/01/05 01:16:19;;;;;;;0.40;0.40;;;2.20;99.90;;;;;;4395650;32;20097;-63
2024/01/05 01:18:45;;;;;;;0.40;0.40;;;2.20;99.90;;;;;;4395144;32;20065;-61
2024/01/05 01:21:10;;;;;;;0.55;0.55;;;2.20;99.90;;;;;;4395020;32;20086;-61
2024/01/05 01:23:36;;;;;;;0.40;0.40;;;2.20;99.90;;;;;;4396633;32;20071;-61
2024/01/05 01:26:01;;;;;;;0.30;0.30;;;2.20;99.90;;;;;;4394429;32;20133;-62
2024/01/05 01:28:27;;;;;;;0.60;0.60;;;2.20;99.90;;;;;;4396161;32;20133;-61
2024/01/05 01:30:53;;;;;;;0.35;0.35;;;2.30;99.90;;;;;;4394147;32;20086;-61
2024/01/05 01:33:19;;;;;;;0.32;0.32;;;2.30;99.90;;;;;;4394353;32;21124;-62
2024/01/05 01:35:44;;;;;;;0.30;0.30;;;2.30;99.90;;;;;;4395360;32;20058;-63
2024/01/05 01:38:10;;;;;;;0.30;0.30;;;2.40;99.90;;;;;;4378860;32;20128;-62
2024/01/05 01:40:36;;;;;;;0.30;0.30;;;2.40;99.90;;;;;;4381010;32;20588;-63
2024/01/05 01:43:03;;;;;;;0.52;0.52;;;2.50;99.90;;;;;;4395496;32;20077;-61
2024/01/05 01:45:29;;;;;;;0.75;0.73;;;2.40;99.90;;;;;;4400814;32;20098;-62
2024/01/05 01:47:55;;;;;;;0.40;0.40;;;2.30;99.90;;;;;;4399993;32;20116;-62
2024/01/05 01:50:24;;;;;;;0.30;0.30;;;2.30;99.90;;;;;;4400010;32;20074;-61
2024/01/05 01:52:50;;;;;;;0.30;0.30;;;2.40;99.90;;;;;;4399344;32;20065;-61
2024/01/05 01:55:17;;;;;;;0.47;0.47;;;2.40;99.90;;;;;;4401701;32;20410;-61
2024/01/05 01:57:42;;;;;;;0.40;0.40;;;2.40;99.90;;;;;;4381904;32;20070;-62
2024/01/05 02:02:35;;;;;;;0.35;0.35;;;2.40;99.90;;;;;;4398509;32;20595;-62
2024/01/05 02:05:01;;;;;;;0.50;0.50;;;2.40;99.90;;;;;;4397336;32;20054;-61
2024/01/05 02:07:26;;;;;;;0.30;0.30;;;2.40;99.90;;;;;;4398917;32;20120;-62
2024/01/05 02:09:52;;;;;;;0.50;0.50;;;2.40;99.90;;;;;;4381393;32;20058;-61
2024/01/05 02:12:18;;;;;;;1.05;0.85;;;2.30;99.90;;;;;;4383542;32;20054;-61
2024/01/05 02:14:44;;;;;;;0.45;0.45;;;2.30;99.90;;;;;;4398487;32;20476;-61
2024/01/05 02:17:30;;;;;;;0.40;0.40;;;2.20;99.90;;;;;;4399454;32;20065;-61
2024/01/05 02:19:56;;;;;;;1.65;1.20;;;2.20;99.90;;;;;;4385972;32;20054;-61
2024/01/05 02:22:22;;;;;;;0.73;0.73;;;2.20;99.90;;;;;;4380812;32;20541;-61
2024/01/05 02:24:49;;;;;;;0.35;0.35;;;2.20;99.90;;;;;;4381990;32;20517;-62
2024/01/05 02:27:14;;;;;;;0.32;0.32;;;2.20;99.90;;;;;;4399739;32;20106;-62
2024/01/05 02:29:40;;;;;;;0.55;0.55;;;2.30;99.90;;;;;;4397511;32;20078;-61
2024/01/05 02:32:05;;;;;;;0.30;0.30;;;2.30;99.90;;;;;;4396510;32;20193;-61
2024/01/05 02:34:31;;;;;;;0.45;0.45;;;2.30;99.90;;;;;;4399419;32;20660;-61
2024/01/05 02:36:56;;;;;;;0.30;0.30;;;2.30;99.90;;;;;;4395153;32;20077;-62
2024/01/05 02:39:22;;;;;;;0.82;0.82;;;2.40;99.90;;;;;;4398925;32;20066;-61
2024/01/05 02:41:47;;;;;;;0.65;0.65;;;2.30;99.90;;;;;;4380701;32;20543;-62
2024/01/05 02:44:13;;;;;;;0.40;0.40;;;2.40;99.90;;;;;;4398488;32;20177;-62
2024/01/05 02:46:38;;;;;;;0.50;0.50;;;2.40;99.90;;;;;;4399986;32;20082;-58
2024/01/05 02:49:04;;;;;;;1.50;0.98;;;2.40;99.90;;;;;;4401137;32;20059;-61
2024/01/05 02:51:29;;;;;;;0.57;0.57;;;2.40;99.90;;;;;;4402403;32;20073;-61
2024/01/05 02:53:55;;;;;;;0.55;0.55;;;2.40;99.90;;;;;;4398466;32;20124;-62
2024/01/05 02:56:22;;;;;;;0.40;0.40;;;2.30;99.90;;;;;;4399914;32;20090;-63
2024/01/05 02:58:48;;;;;;;0.40;0.40;;;2.30;99.90;;;;;;4400416;32;20083;-60
2024/01/05 03:01:16;;;;;;;0.40;0.40;;;2.40;99.90;;;;;;4401095;32;20058;-61
2024/01/05 03:03:44;;;;;;;0.40;0.40;;;2.40;99.90;;;;;;4402292;32;20125;-63
2024/01/05 03:06:09;;;;;;;0.35;0.35;;;2.40;99.90;;;;;;4380906;32;20090;-61
2024/01/05 03:08:35;;;;;;;0.30;0.30;;;2.40;99.90;;;;;;4399417;32;20129;-62
2024/01/05 03:11:00;;;;;;;0.60;0.60;;;2.40;99.90;;;;;;4395248;32;20122;-62
2024/01/05 03:13:25;;;;;;;0.40;0.40;;;2.40;99.90;;;;;;4396084;32;20109;-61
2024/01/05 03:15:52;;;;;;;0.45;0.45;;;2.30;99.90;;;;;;4401271;32;20443;-60
2024/01/05 03:18:18;;;;;;;0.35;0.35;;;2.40;99.90;;;;;;4401967;32;20074;-60
2024/01/05 03:20:43;;;;;;;2.25;1.67;;;2.40;99.90;;;;;;4400381;32;20073;-61
2024/01/05 03:23:09;;;;;;;1.85;0.82;;;2.40;99.90;;;;;;4401507;32;20129;-61
2024/01/05 03:25:34;;;;;;;0.30;0.30;;;2.40;99.90;;;;;;4399659;32;20192;-61
2024/01/05 03:27:59;;;;;;;0.40;0.40;;;2.40;99.90;;;;;;4400421;32;20530;-60
2024/01/05 03:30:25;;;;;;;0.85;0.80;;;2.40;99.90;;;;;;4396249;32;22148;-60
2024/01/05 03:32:50;;;;;;;0.47;0.47;;;2.40;99.90;;;;;;4400289;32;20095;-60
2024/01/05 03:35:16;;;;;;;0.85;0.85;;;2.40;99.90;;;;;;4401419;32;20085;-60
2024/01/05 03:37:41;;;;;;;0.40;0.40;;;2.40;99.90;;;;;;4399026;32;20100;-60
2024/01/05 03:40:07;;;;;;;0.30;0.30;;;2.40;99.90;;;;;;4399021;32;20078;-60
2024/01/05 03:42:33;;;;;;;0.40;0.40;;;2.50;99.90;;;;;;4398893;32;20074;-60
2024/01/05 03:44:58;;;;;;;14.93;2.78;;;2.50;99.90;;;;;;4399714;32;20081;-60
2024/01/05 03:47:23;;;;;;;0.50;0.50;;;2.40;99.90;;;;;;4401768;32;20074;-59
2024/01/05 03:49:49;;;;;;;0.37;0.37;;;2.40;99.90;;;;;;4400849;32;20074;-60
2024/01/05 03:52:14;;;;;;;0.40;0.40;;;2.40;99.90;;;;;;4402264;32;20086;-62
2024/01/05 03:54:40;;;;;;;0.70;0.70;;;2.40;99.90;;;;;;4397855;32;21494;-61
2024/01/05 03:57:05;;;;;;;1.85;1.08;;;2.30;99.90;;;;;;4402419;32;21116;-62
2024/01/05 03:59:31;;;;;;;7.70;1.08;;;2.30;99.90;;;;;;4402578;32;20054;-62
2024/01/05 04:01:56;;;;;;;0.40;0.40;;;2.30;99.90;;;;;;4403883;32;20070;-62
2024/01/05 04:04:22;;;;;;;0.30;0.30;;;2.30;99.90;;;;;;4403227;32;20102;-62
2024/01/05 04:06:47;;;;;;;0.37;0.37;;;2.40;99.90;;;;;;4400632;32;20070;-62
2024/01/05 04:09:13;;;;;;;0.62;0.62;;;2.40;99.90;;;;;;4402618;32;20139;-61
2024/01/05 04:11:39;;;;;;;0.40;0.40;;;2.40;99.90;;;;;;4401321;32;20086;-62
2024/01/05 04:14:05;;;;;;;0.32;0.32;;;2.40;99.90;;;;;;4384651;32;20501;-62
2024/01/05 04:16:31;;;;;;;1.25;0.90;;;2.40;99.90;;;;;;4394243;32;20066;-61
2024/01/05 04:18:56;;;;;;;0.75;0.75;;;2.40;99.90;;;;;;4389121;32;20139;-60
2024/01/05 04:21:22;;;;;;;1.45;0.85;;;2.30;99.90;;;;;;4387307;32;20062;-61
2024/01/05 04:23:47;;;;;;;0.30;0.30;;;2.30;99.90;;;;;;4406490;32;20081;-62
2024/01/05 04:26:13;;;;;;;0.30;0.30;;;2.40;99.90;;;;;;4404675;32;20066;-61
2024/01/05 04:28:38;;;;;;;0.65;0.65;;;2.40;99.90;;;;;;4404094;32;20069;-62
2024/01/05 04:31:04;;;;;;;0.32;0.32;;;2.40;99.90;;;;;;4402693;32;20074;-61
2024/01/05 04:33:30;;;;;;;0.30;0.30;;;2.40;99.90;;;;;;4400812;32;20439;-61
2024/01/05 04:35:55;;;;;;;0.43;0.43;;;2.40;99.90;;;;;;4399829;32;20090;-63
2024/01/05 04:38:20;;;;;;;0.40;0.40;;;2.40;99.90;;;;;;4400862;32;20078;-60
2024/01/05 04:40:46;;;;;;;0.40;0.40;;;2.40;99.90;;;;;;4401227;32;20132;-63
2024/01/05 04:43:12;;;;;;;0.35;0.35;;;2.50;99.90;;;;;;4399827;32;20074;-62
2024/01/05 04:45:37;;;;;;;0.40;0.40;;;2.50;99.90;;;;;;4402526;32;20114;-62
2024/01/05 04:48:03;;;;;;;0.43;0.43;;;2.40;99.90;;;;;;4401508;32;20086;-61
2024/01/05 04:50:28;;;;;;;0.40;0.40;;;2.40;99.90;;;;;;4402754;32;20094;-61
2024/01/05 04:52:54;;;;;;;0.30;0.30;;;2.40;99.90;;;;;;4400812;32;20058;-62
2024/01/05 04:55:20;;;;;;;2.05;1.50;;;2.30;99.90;;;;;;4402786;32;20135;-62
2024/01/05 04:57:46;;;;;;;0.40;0.40;;;2.30;99.90;;;;;;4401941;32;20057;-62
2024/01/05 05:00:13;;;;;;;0.30;0.30;;;2.40;99.90;;;;;;4404179;32;20122;-62
2024/01/05 05:02:38;;;;;;;0.30;0.30;;;2.40;99.90;;;;;;4382006;32;20075;-62
2024/01/05 05:05:04;;;;;;;0.30;0.30;;;2.40;99.90;;;;;;4397965;32;20066;-62
2024/01/05 05:07:29;;;;;;;0.50;0.50;;;2.30;99.90;;;;;;4399122;32;20063;-61
2024/01/05 05:09:55;;;;;;;0.90;0.62;;;2.20;99.90;;;;;;4398063;32;20320;-62
2024/01/05 05:12:20;;;;;;;0.30;0.30;;;2.20;99.90;;;;;;4402310;32;20077;-62
2024/01/05 05:14:46;;;;;;;0.30;0.30;;;2.20;99.90;;;;;;4399219;32;20458;-61
2024/01/05 05:17:11;;;;;;;0.30;0.30;;;2.10;99.90;;;;;;4402114;32;20513;-61
2024/01/05 05:19:37;;;;;;;0.40;0.40;;;2.10;99.90;;;;;;4400672;32;20179;-61
2024/01/05 05:22:02;;;;;;;0.60;0.60;;;2.10;99.90;;;;;;4402195;32;20073;-60
2024/01/05 05:24:28;;;;;;;0.50;0.50;;;2.10;99.90;;;;;;4399512;32;20061;-62
2024/01/05 05:26:53;;;;;;;0.40;0.40;;;2.10;99.90;;;;;;4382101;32;20070;-62
2024/01/05 05:29:19;;;;;;;1.35;1.10;;;2.10;99.90;;;;;;4399510;32;20542;-61
2024/01/05 05:31:44;;;;;;;0.32;0.32;;;2.20;99.90;;;;;;4401674;32;20125;-62
2024/01/05 05:34:09;;;;;;;0.30;0.30;;;2.10;99.90;;;;;;4383877;32;20062;-61
2024/01/05 05:36:35;;;;;;;0.40;0.40;;;2.10;99.90;;;;;;4400424;32;20121;-62
2024/01/05 05:39:01;;;;;;;0.90;0.88;;;2.10;99.90;;;;;;4400128;32;20431;-61
2024/01/05 05:41:26;;;;;;;0.40;0.40;;;2.20;99.90;;;;;;4400015;32;20073;-61
2024/01/05 05:43:51;;;;;;;0.40;0.40;;;2.20;99.90;;;;;;4396787;32;20518;-61
2024/01/05 05:46:18;;;;;;;0.30;0.30;;;2.10;99.90;;;;;;4395945;32;20090;-62
2024/01/05 05:48:43;;;;;;;0.50;0.50;;;2.20;99.90;;;;;;4397441;32;20082;-61
2024/01/05 05:51:11;;;;;;;0.40;0.40;;;2.20;99.90;;;;;;4397556;32;20200;-60
2024/01/05 05:53:36;;;;;;;0.55;0.55;;;2.20;99.90;;;;;;4379248;32;20070;-61
2024/01/05 05:56:02;;;;;;;0.73;0.73;;;2.30;99.90;;;;;;4396814;32;20117;-62
2024/01/05 05:58:27;;;;;;;0.30;0.30;;;2.30;99.90;;;;;;4398073;32;20116;-62
2024/01/05 06:00:54;;;;;;;0.52;0.52;;;2.30;99.90;;;;;;4395116;32;20556;-62
2024/01/05 06:03:22;;;;;;;0.50;0.50;;;2.30;99.90;;;;;;4396101;32;20066;-61
2024/01/05 06:05:48;;;;;;;0.30;0.30;;;2.20;99.90;;;;;;4392919;32;20643;-61
2024/01/05 06:08:13;;;;;;;0.35;0.35;;;2.10;99.90;;;;;;4397111;32;20314;-62
2024/01/05 06:10:39;;;;;;;0.40;0.40;;;2.10;99.90;;;;;;4394197;32;20070;-62
2024/01/05 06:13:05;;;;;;;0.47;0.47;;;2.00;99.90;;;;;;4396465;32;20509;-61
2024/01/05 06:15:30;;;;;;;0.40;0.40;;;2.00;99.90;;;;;;4394816;32;20569;-61
2024/01/05 06:17:55;;;;;;;0.60;0.60;;;2.00;99.90;;;;;;4397222;32;20082;-61
2024/01/05 06:20:21;;;;;;;0.57;0.57;;;2.10;99.90;;;;;;4395381;32;20529;-62
2024/01/05 06:22:46;;;;;;;0.30;0.30;;;2.00;99.90;;;;;;4398205;32;20085;-62
2024/01/05 06:25:12;;;;;;;0.35;0.35;;;2.00;99.90;;;;;;4395165;32;20077;-61
2024/01/05 06:27:37;;;;;;;0.32;0.32;;;1.90;99.90;;;;;;4396051;32;20090;-62
2024/01/05 06:30:03;;;;;;;0.32;0.32;;;2.00;99.90;;;;;;4393365;32;21664;-61
2024/01/05 06:32:29;;;;;;;0.40;0.40;;;2.00;99.90;;;;;;4392803;32;20089;-61
2024/01/05 06:34:54;;;;;;;0.82;0.82;;;1.90;99.90;;;;;;4396544;32;20450;-63
2024/01/05 06:37:20;;;;;;;0.30;0.30;;;1.90;99.90;;;;;;4394816;32;20129;-63
2024/01/05 06:39:45;;;;;;;0.37;0.37;;;1.90;99.90;;;;;;4393141;32;20089;-63
2024/01/05 06:42:11;;;;;;;0.50;0.50;;;1.80;99.90;;;;;;4398931;32;20490;-63
2024/01/05 06:44:36;;;;;;;1.05;0.82;;;1.90;99.90;;;;;;4398710;32;21223;-63
2024/01/05 06:47:02;;;;;;;0.70;0.70;;;1.90;99.90;;;;;;4398412;32;20078;-63
2024/01/05 06:49:27;;;;;;;0.40;0.40;;;1.80;99.90;;;;;;4398532;32;20057;-63
2024/01/05 06:51:52;;;;;;;2.55;1.50;;;1.80;99.90;;;;;;4397352;32;20090;-62
2024/01/05 06:54:18;;;;;;;0.40;0.40;;;1.80;99.90;;;;;;4399092;32;20178;-62
2024/01/05 06:56:44;;;;;;;0.95;0.93;;;1.80;99.90;;;;;;4397463;32;20065;-63
2024/01/05 06:59:10;;;;;;;0.50;0.50;;;1.70;99.90;;;;;;4395381;32;20073;-63
2024/01/05 07:01:36;;;;;;;0.30;0.30;;;1.60;99.90;;;;;;4396118;32;20854;-63
2024/01/05 07:04:01;;;;;;;0.30;0.30;;;1.60;99.90;;;;;;4380156;32;20121;-63
2024/01/05 07:06:27;;;;;;;0.32;0.32;;;1.60;99.90;;;;;;4393901;32;20201;-62
2024/01/05 07:08:52;;;;;;;0.30;0.30;;;1.60;99.90;;;;;;4392780;32;20097;-62
2024/01/05 07:11:21;;;;;;;0.62;0.62;;;1.50;99.90;;;;;;4392951;32;20173;-62
2024/01/05 07:13:46;;;;;;;0.43;0.43;;;1.50;99.90;;;;;;4379469;32;20074;-62
2024/01/05 07:16:17;;;;;;;0.40;0.40;;;1.50;99.90;;;;;;4392805;32;20406;-62
2024/01/05 07:18:43;;;;;;;0.75;0.75;;;1.50;99.90;;;;;;4391252;32;20061;-62
2024/01/05 07:21:08;;;;;;;0.40;0.40;;;1.40;99.90;;;;;;4394715;32;20086;-62
2024/01/05 07:23:36;;;;;;;0.45;0.45;;;1.40;99.90;;;;;;4394198;32;20065;-63
2024/01/05 07:26:01;;;;;;;0.40;0.40;;;1.40;99.90;;;;;;4392495;32;20090;-62
2024/01/05 07:28:27;;;;;;;0.60;0.60;;;1.40;99.90;;;;;;4393254;32;20453;-63
2024/01/05 07:30:52;;;;;;;0.47;0.47;;;1.40;99.90;;;;;;4395008;32;20592;-63
2024/01/05 07:33:18;;;;;;;0.40;0.40;;;1.40;99.90;;;;;;4378866;32;20070;-63
2024/01/05 07:35:43;;;;;;;0.40;0.40;;;1.40;99.90;;;;;;4394369;32;20132;-63
2024/01/05 07:38:09;;;;;;;0.30;0.30;;;1.40;99.90;;;;;;4393607;32;20097;-63
2024/01/05 07:40:34;;;;;;;0.40;0.40;;;1.40;99.90;;;;;;4393703;32;20070;-64
2024/01/05 07:43:00;;;;;;;0.40;0.40;;;1.40;99.90;;;;;;4394714;32;20121;-63
2024/01/05 07:45:25;;;;;;;0.60;0.60;;;1.40;99.90;;;;;;4395728;32;20073;-61
2024/01/05 07:47:51;;;;;;;0.30;0.30;;;1.40;99.90;;;;;;4396834;32;20081;-61
2024/01/05 07:50:16;;;;;;;0.30;0.30;;;1.40;99.90;;;;;;4396473;32;20094;-61
2024/01/05 07:52:43;;;;;;;0.98;0.98;;;1.50;99.90;;;;;;4398170;32;20478;-63
2024/01/05 07:55:09;;;;;;;0.40;0.40;;;1.50;99.90;;;;;;4395069;32;20082;-61
2024/01/05 07:57:35;;;;;;;0.30;0.30;;;1.50;99.90;;;;;;4381638;32;20070;-61
2024/01/05 08:00:01;;;;;;;0.85;0.85;;;1.50;99.90;;;;;;4379957;32;20083;-61
2024/01/05 08:02:26;;;;;;;0.50;0.50;;;1.50;99.90;;;;;;4395713;32;20510;-61
2024/01/05 08:04:52;;;;;;;1.15;1.10;;;1.50;99.90;;;;;;4393223;32;20066;-60
2024/01/05 08:07:18;;;;;;;0.30;0.30;;;1.50;99.90;;;;;;4392993;32;20073;-62
2024/01/05 08:09:43;;;;;;;0.40;0.40;;;1.50;99.90;;;;;;4381184;32;20918;-61
2024/01/05 08:12:09;;;;;;;0.57;0.57;;;1.50;99.90;;;;;;4380681;32;20070;-60
2024/01/05 08:14:35;;;;;;;0.30;0.30;;;1.50;99.90;;;;;;4398727;32;20081;-60
2024/01/05 08:17:00;;;;;;;0.30;0.30;;;1.50;99.90;;;;;;4395668;32;20518;-62
2024/01/05 08:19:26;;;;;;;0.30;0.30;;;1.50;99.90;;;;;;4396892;32;20465;-61
2024/01/05 08:21:51;;;;;;;0.55;0.55;;;1.40;99.90;;;;;;4395755;32;20058;-60
2024/01/05 08:24:17;;;;;;;0.40;0.40;;;1.40;99.90;;;;;;4397956;32;20124;-61
2024/01/05 08:26:44;;;;;;;6.37;2.60;;;1.40;99.90;;;;;;4379165;32;20082;-61
2024/01/05 08:29:09;;;;;;;0.60;0.60;;;1.40;99.90;;;;;;4397850;32;20085;-61
2024/01/05 08:31:35;;;;;;;1.37;0.50;;;1.40;99.90;;;;;;4397678;32;20157;-60
2024/01/05 08:34:00;;;;;;;0.30;0.30;;;1.50;99.90;;;;;;4396594;32;20062;-61
2024/01/05 08:36:27;;;;;;;0.57;0.57;;;1.50;99.90;;;;;;4377364;32;20086;-63
2024/01/05 08:38:53;;;;;;;0.30;0.30;;;1.60;99.90;;;;;;4393960;32;20125;-61
2024/01/05 08:41:19;;;;;;;0.30;0.30;;;1.60;99.90;;;;;;4395846;32;20505;-61
2024/01/05 08:43:44;;;;;;;0.40;0.40;;;1.50;99.90;;;;;;4395880;32;20069;-61
2024/01/05 08:46:10;;;;;;;0.45;0.45;;;1.50;99.90;;;;;;4395066;32;20850;-62
2024/01/05 08:48:38;;;;;;;0.40;0.40;;;1.50;99.90;;;;;;4395282;32;20453;-61
2024/01/05 08:51:04;;;;;;;2.17;0.47;;;1.50;99.90;;;;;;4377464;32;20103;-61
2024/01/05 08:53:30;;;;;;;1.55;1.45;;;1.50;99.90;;;;;;4395998;32;20078;-62
2024/01/05 08:55:55;;;;;;;0.30;0.30;;;1.50;99.90;;;;;;4394146;32;20074;-60
2024/01/05 08:58:21;;;;;;;0.40;0.40;;;1.40;99.90;;;;;;4384029;32;20102;-61
2024/01/05 09:00:47;;;;;;;0.30;0.30;;;1.50;99.90;;;;;;4392413;32;20546;-60
2024/01/05 09:03:12;;;;;;;0.45;0.45;;;1.50;99.90;;;;;;4391767;32;20058;-60
2024/01/05 09:05:38;;;;;;;0.30;0.30;;;1.50;99.90;;;;;;4392324;32;20062;-60
2024/01/05 09:08:03;;;;;;;0.50;0.50;;;1.50;99.90;;;;;;4391689;32;20073;-62
2024/01/05 09:10:32;;;;;;;0.30;0.30;;;1.60;99.90;;;;;;4384866;32;20099;-61
2024/01/05 09:12:58;;;;;;;0.50;0.50;;;1.60;99.90;;;;;;4388875;32;20082;-62
2024/01/05 09:15:24;;;;;;;0.40;0.40;;;1.60;99.90;;;;;;4374335;32;20102;-61
2024/01/05 09:17:49;;;;;;;0.40;0.40;;;1.60;99.90;;;;;;4390379;32;20149;-61
2024/01/05 09:20:15;;;;;;;0.40;0.40;;;1.60;99.90;;;;;;4390424;32;20062;-62
2024/01/05 09:22:40;;;;;;;0.50;0.50;;;1.60;99.90;;;;;;4389959;32;20094;-60
2024/01/05 09:25:08;;;;;;;13.25;1.35;;;1.60;99.90;;;;;;4388305;32;20078;-61
2024/01/05 09:27:33;;;;;;;0.50;0.50;;;1.60;99.90;;;;;;4376380;32;20253;-61
2024/01/05 09:29:59;;;;;;;0.50;0.50;;;1.60;99.90;;;;;;4388651;32;20098;-60
2024/01/05 09:32:25;;;;;;;0.30;0.30;;;1.70;99.90;;;;;;4388365;32;20078;-62
2024/01/05 09:34:50;;;;;;;0.98;0.98;;;1.70;99.90;;;;;;4372413;32;20121;-60
2024/01/05 09:37:16;;;;;;;0.32;0.32;;;1.70;99.90;;;;;;4385862;32;20086;-61
2024/01/05 09:39:42;;;;;;;0.35;0.35;;;1.60;99.90;;;;;;4386594;32;20062;-60
2024/01/05 09:42:08;;;;;;;0.40;0.40;;;1.60;99.90;;;;;;4387603;32;20556;-61
2024/01/05 09:44:35;;;;;;;0.40;0.40;;;1.50;99.90;;;;;;4388195;32;20536;-61
2024/01/05 09:47:01;;;;;;;0.40;0.40;;;1.60;99.90;;;;;;4373913;32;21314;-60
2024/01/05 09:49:27;;;;;;;0.40;0.40;;;1.70;99.90;;;;;;4373987;32;20422;-62
2024/01/05 09:51:53;;;;;;;0.43;0.43;;;1.70;99.90;;;;;;4390887;32;20074;-61
2024/01/05 09:54:19;;;;;;;0.30;0.30;;;1.70;99.90;;;;;;4391257;32;20065;-61
2024/01/05 09:56:46;;;;;;;0.75;0.75;;;1.70;99.90;;;;;;4374633;32;20073;-60
2024/01/05 09:59:12;;;;;;;0.45;0.45;;;1.60;99.90;;;;;;4373033;32;20066;-60
2024/01/05 10:01:39;;;;;;;0.40;0.40;;;1.70;99.90;;;;;;4388537;32;20443;-61
2024/01/05 10:04:08;;;;;;;0.88;0.88;;;1.70;99.90;;;;;;4392372;32;20077;-60
2024/01/05 10:06:34;;;;;;;0.88;0.77;;;1.70;99.90;;;;;;4375918;32;20094;-61
2024/01/05 10:09:00;;;;;;;0.40;0.40;;;1.70;99.90;;;;;;4372625;32;20132;-61
2024/01/05 10:11:29;;;;;;;0.40;0.40;;;1.70;99.90;;;;;;4391751;32;20081;-59
2024/01/05 10:13:57;;;;;;;0.35;0.35;;;1.70;99.90;;;;;;4376479;32;20065;-61
2024/01/05 10:16:27;;;;;;;0.40;0.40;;;1.70;99.90;;;;;;4392811;32;20084;-60
2024/01/05 10:18:53;;;;;;;0.50;0.50;;;1.70;99.90;;;;;;4390118;32;20086;-60
2024/01/05 10:21:22;;;;;;;0.40;0.40;;;1.70;99.90;;;;;;4392737;32;20182;-61
2024/01/05 10:23:47;;;;;;;0.70;0.70;;;1.70;99.90;;;;;;4393087;32;20144;-60
2024/01/05 10:26:16;;;;;;;1.05;0.95;;;1.70;99.90;;;;;;4393018;32;20097;-61
2024/01/05 10:28:42;;;;;;;0.40;0.40;;;1.70;99.90;;;;;;4394159;32;20083;-61
2024/01/05 10:31:12;;;;;;;0.35;0.35;;;1.70;99.90;;;;;;4392736;32;20073;-59
2024/01/05 10:33:55;;;;;;;0.60;0.60;;;1.60;99.90;;;;;;4392098;32;20066;-62
2024/01/05 10:36:22;;;;;;;0.40;0.40;;;1.70;99.90;;;;;;4393258;32;20336;-62
2024/01/05 10:38:48;;;;;;;0.40;0.40;;;1.70;99.90;;;;;;4389302;32;20788;-61
2024/01/05 10:41:15;;;;;;;0.40;0.40;;;1.70;99.90;;;;;;4391539;32;20090;-61
2024/01/05 10:43:42;;;;;;;0.40;0.40;;;1.70;99.90;;;;;;4394280;32;20082;-60
2024/01/05 10:46:10;;;;;;;0.40;0.40;;;1.70;99.90;;;;;;4378363;32;20387;-61
2024/01/05 10:48:36;;;;;;;0.68;0.68;;;1.70;99.90;;;;;;4378737;32;20083;-60
2024/01/05 10:51:02;;;;;;;0.43;0.43;;;1.70;99.90;;;;;;4392583;32;20625;-61
2024/01/05 10:53:27;;;;;;;0.40;0.40;;;1.70;99.90;;;;;;4395555;32;20090;-59
2024/01/05 10:55:56;;;;;;;0.40;0.40;;;1.80;99.90;;;;;;4394792;32;20058;-60
2024/01/05 10:58:22;;;;;;;0.45;0.45;;;1.70;99.90;;;;;;4391313;32;20069;-60
2024/01/05 11:00:48;;;;;;;0.62;0.62;;;1.80;99.90;;;;;;4396955;32;20090;-59
2024/01/05 11:03:14;;;;;;;0.50;0.50;;;1.80;99.90;;;;;;4396965;32;20057;-61
2024/01/05 11:05:41;;;;;;;0.40;0.40;;;1.80;99.90;;;;;;4393172;32;20070;-59
2024/01/05 11:08:32;;;;;;;1.10;1.02;;;1.70;99.90;;;;;;4370629;32;20144;-60
2024/01/05 11:11:30;;;;;;;0.62;0.62;;;1.70;99.90;;;;;;4379311;32;20086;-59
2024/01/05 11:14:26;;;;;;;0.55;0.55;;;1.60;99.90;;;;;;4381649;32;20432;-62
2024/01/05 11:17:15;;;;;;;0.52;0.52;;;1.60;99.90;;;;;;4379891;32;20078;-62
2024/01/05 11:20:06;;;;;;;0.50;0.50;;;1.70;99.90;;;;;;4393317;32;20675;-61
2024/01/05 11:22:35;;;;;;;0.30;0.30;;;1.70;99.90;;;;;;4394360;32;20078;-62
2024/01/05 11:25:02;;;;;;;0.40;0.40;;;1.70;99.90;;;;;;4396461;32;21107;-63
2024/01/05 11:27:30;;;;;;;0.40;0.40;;;1.70;99.90;;;;;;4393892;32;20077;-62
2024/01/05 11:29:57;;;;;;;0.30;0.30;;;1.70;99.90;;;;;;4378998;32;20071;-61
2024/01/05 11:32:46;;;;;;;0.40;0.40;;;1.70;99.90;;;;;;4380030;32;20078;-63
2024/01/05 11:35:22;;;;;;;0.30;0.30;;;1.60;99.90;;;;;;4368331;32;20058;-61
2024/01/05 11:37:49;;;;;;;0.35;0.35;;;1.60;99.90;;;;;;4392378;32;20513;-61
2024/01/05 11:40:32;;;;;;;0.30;0.30;;;1.60;99.90;;;;;;4378207;32;20083;-61
2024/01/05 11:42:59;;;;;;;0.40;0.40;;;1.60;99.90;;;;;;4393892;32;20083;-60
2024/01/05 11:45:46;;;;;;;0.30;0.30;;;1.70;99.90;;;;;;4376180;32;20513;-63
2024/01/05 11:48:34;;;;;;;0.85;0.85;;;1.60;99.90;;;;;;4379222;32;20086;-61
2024/01/05 11:51:04;;;;;;;0.80;0.80;;;1.70;99.90;;;;;;4375504;32;88741;-63
2024/01/05 11:53:30;;;;;;;0.40;0.40;;;1.70;99.90;;;;;;4392484;32;20065;-62
2024/01/05 11:55:57;;;;;;;0.47;0.47;;;1.70;99.90;;;;;;4379595;32;20086;-62
2024/01/05 11:58:27;;;;;;;0.40;0.40;;;1.70;99.90;;;;;;4392676;32;20384;-62
2024/01/05 12:00:55;;;;;;;0.57;0.57;;;1.80;99.90;;;;;;4379591;32;20054;-62
2024/01/05 12:03:23;;;;;;;0.30;0.30;;;1.70;99.90;;;;;;4392019;32;20065;-61
2024/01/05 12:05:55;;;;;;;0.30;0.30;;;1.70;99.90;;;;;;4377355;32;20128;-63
2024/01/05 12:08:22;;;;;;;0.30;0.30;;;1.70;99.90;;;;;;4389490;32;20069;-63
2024/01/05 12:11:05;;;;;;;0.40;0.40;;;1.70;99.90;;;;;;4392780;32;20067;-63
2024/01/05 12:13:33;;;;;;;0.30;0.30;;;1.80;99.90;;;;;;4376288;32;20066;-61
2024/01/05 12:16:00;;;;;;;0.60;0.60;;;1.80;99.90;;;;;;4375466;32;20070;-63
2024/01/05 12:18:26;;;;;;;0.55;0.55;;;1.80;99.90;;;;;;4393943;32;20142;-62
2024/01/05 12:20:54;;;;;;;0.40;0.40;;;1.80;99.90;;;;;;4374737;32;20082;-63
2024/01/05 12:23:20;;;;;;;0.40;0.40;;;1.80;99.90;;;;;;4393154;32;20086;-63
2024/01/05 12:25:56;;;;;;;0.40;0.40;;;1.80;99.90;;;;;;4392712;32;20126;-61
2024/01/05 12:28:21;;;;;;;0.50;0.50;;;1.80;99.90;;;;;;4389572;32;20063;-61
2024/01/05 12:30:47;;;;;;;0.37;0.37;;;1.80;99.90;;;;;;4378732;32;20086;-61
2024/01/05 12:33:13;;;;;;;0.30;0.30;;;1.80;99.90;;;;;;4394361;32;20074;-61
2024/01/05 12:35:39;;;;;;;0.40;0.40;;;1.80;99.90;;;;;;4396480;32;20116;-61
2024/01/05 12:38:04;;;;;;;0.50;0.50;;;1.80;99.90;;;;;;4394531;32;20124;-60
2024/01/05 12:40:29;;;;;;;0.50;0.50;;;1.80;99.90;;;;;;4396534;32;20534;-61
2024/01/05 12:42:55;;;;;;;0.40;0.40;;;1.80;99.90;;;;;;4375690;32;20077;-61
2024/01/05 12:45:23;;;;;;;0.40;0.40;;;1.80;99.90;;;;;;4394233;32;20069;-62
2024/01/05 12:47:50;;;;;;;0.40;0.40;;;1.80;99.90;;;;;;4397499;32;20430;-61
2024/01/05 12:50:25;;;;;;;0.80;0.80;;;1.80;99.90;;;;;;4379347;32;20089;-59
2024/01/05 12:52:50;;;;;;;0.65;0.65;;;1.80;99.90;;;;;;4396287;32;20070;-60
2024/01/05 12:55:36;;;;;;;0.50;0.50;;;1.80;99.90;;;;;;4395505;32;20070;-61
2024/01/05 12:58:03;;;;;;;0.40;0.40;;;1.80;99.90;;;;;;4380696;32;20070;-61